Latest Weather Observations for Ballera

IDQ60801

Issued at 10:02 pm EST Friday 26 August 2016 (issued every 30 minutes, with the page automatically refreshed every 10 minutes)

About weather observations | Map of weather stations | Latest weather observations for QLD | Other Formats
Station Details ID: 045009 Name: BALLERA GAS FIELD Lat: -27.40 Lon: 141.81 Height: 114.5 m
Data from the previous 72 hours. | See also: Recent months at Ballera
Date/Time
EST
Temp
°C
App
Temp
°C
Dew
Point
°C
Rel
Hum
%
Delta-T
°C
Wind Press
QNH
hPa
Press
MSL
hPa
Rain since
9am
mm
Dir  Spd
km/h
Gust
km/h
Spd
kts
Gust
kts
26/10:00pm 11.1 6.1 1.4 51 4.1 SE 17 19 9 10 1023.9 1023.8 0.0
26/09:30pm 11.8 6.8 1.4 49 4.4 SE 17 19 9 10 1023.7 1023.6 0.0
26/09:00pm 11.6 7.1 2.4 53 4.0 SSE 15 17 8 9 1023.5 1023.4 0.0
26/08:30pm 12.1 7.6 2.3 51 4.3 SSE 15 17 8 9 1023.2 1023.1 0.0
26/08:00pm 12.8 8.3 2.1 48 4.6 SSE 15 17 8 9 1023.1 1023.0 0.0
26/07:30pm 13.6 9.1 1.9 45 5.1 SSE 15 17 8 9 1022.9 1022.7 0.0
26/07:00pm 14.6 9.9 1.2 40 5.8 SSE 15 19 8 10 1022.5 1022.3 0.0
26/06:30pm 15.9 10.8 0.5 35 6.7 SSE 17 20 9 11 1022.2 1022.0 0.0
26/06:00pm 16.9 11.2 0.5 33 7.1 SSE 20 28 11 15 1021.8 1021.6 0.0
26/05:30pm 17.6 11.8 -0.2 30 7.7 S 20 24 11 13 1021.5 1021.3 0.0
26/05:00pm 18.6 12.2 0.7 30 7.9 SSE 24 30 13 16 1021.2 1021.0 0.0
26/04:30pm 18.4 12.8 1.0 31 7.8 SSE 20 28 11 15 1021.0 1020.8 0.0
26/04:00pm 17.8 12.2 0.9 32 7.5 SSE 20 24 11 13 1020.9 1020.7 0.0
26/03:30pm 18.2 12.5 0.8 31 7.7 SSE 20 30 11 16 1021.0 1020.8 0.0
26/03:00pm 18.1 12.6 2.0 34 7.3 SE 20 30 11 16 1021.0 1020.8 0.0
26/02:30pm 18.4 13.0 2.3 34 7.4 SSE 20 30 11 16 1021.1 1020.9 0.0
26/02:00pm 18.4 13.2 2.3 34 7.4 S 19 32 10 17 1021.4 1021.2 0.0
26/01:30pm 18.4 13.7 3.1 36 7.1 SSE 17 26 9 14 1021.8 1021.6 0.0
26/01:00pm 18.4 14.1 3.5 37 7.0 SSE 15 33 8 18 1022.1 1021.9 0.0
26/12:30pm 17.8 13.3 4.0 40 6.5 SE 17 24 9 13 1022.4 1022.2 0.0
26/12:00pm 17.3 12.3 3.6 40 6.4 SE 19 24 10 13 1022.7 1022.5 0.0
26/11:30am 16.2 11.1 3.9 44 5.7 ESE 20 26 11 14 1022.8 1022.6 0.0
26/11:00am 16.0 11.1 5.3 49 5.1 ESE 20 30 11 16 1023.1 1023.0 0.0
26/10:30am 15.4 10.9 5.9 53 4.6 ESE 19 26 10 14 1023.1 1023.0 0.0
26/10:00am 15.0 10.2 5.8 54 4.4 ESE 20 28 11 15 1023.2 1023.1 0.0
26/09:30am 14.3 9.5 5.7 56 4.1 E 20 24 11 13 1023.2 1023.1 0.0
26/09:00am 12.7 8.1 6.3 65 3.0 E 20 24 11 13 1023.0 1022.8 0.0
26/08:30am 11.6 7.2 6.5 71 2.4 E 19 22 10 12 1022.9 1022.7 0.0
26/08:00am 9.6 6.4 7.0 84 1.2 ESE 13 13 7 7 1022.6 1022.4 0.0
26/07:30am 8.9 5.7 6.7 86 1.0 SE 13 17 7 9 1022.3 1022.1 0.0
26/07:00am 8.5 4.0 6.1 85 1.1 SE 19 22 10 12 1022.0 1021.8 0.0
26/06:30am 8.6 4.1 5.9 83 1.2 SE 19 22 10 12 1021.7 1021.5 0.0
26/06:00am 8.7 3.9 5.4 80 1.5 SE 20 24 11 13 1021.2 1021.0 0.0
26/05:30am 9.4 5.1 5.2 75 1.9 SE 17 20 9 11 1020.9 1020.7 0.0
26/05:00am 9.2 4.4 4.8 74 2.0 SE 19 24 10 13 1020.5 1020.4 0.0
26/04:30am 9.8 4.8 4.6 70 2.3 SSE 20 24 11 13 1020.2 1020.1 0.0
26/04:00am 10.5 4.7 4.4 66 2.7 SSE 24 28 13 15 1020.1 1020.0 0.0
26/03:30am 11.4 6.3 4.2 61 3.2 S 20 28 11 15 1020.0 1019.9 0.0
26/03:00am 11.9 6.4 3.9 58 3.6 SSW 22 26 12 14 1019.9 1019.8 0.0
26/02:30am 11.8 6.9 4.3 60 3.4 SSW 19 22 10 12 1019.9 1019.8 0.0
26/02:00am 11.2 6.7 4.2 62 3.1 SSW 17 19 9 10 1019.9 1019.8 0.0
26/01:30am 11.4 7.3 4.4 62 3.2 SSW 15 17 8 9 1019.9 1019.8 0.0
26/01:00am 12.3 8.5 3.8 56 3.8 S 13 15 7 8 1019.9 1019.8 0.0
26/12:30am 14.3 9.2 3.2 47 5.0 S 19 20 10 11 1019.9 1019.8 0.0
26/12:00am 14.1 9.1 4.4 52 4.5 S 20 24 11 13 1019.9 1019.8 0.0
 
Date/Time
EST
Temp
°C
App
Temp
°C
Dew
Point
°C
Rel
Hum
%
Delta-T
°C
Wind Press
QNH
hPa
Press
MSL
hPa
Rain since
9am
mm
Dir  Spd
km/h
Gust
km/h
Spd
kts
Gust
kts
25/11:30pm 13.4 9.4 5.1 57 3.9 SW 15 19 8 10 1020.0 1019.9 0.0
25/11:00pm 12.9 9.9 5.8 62 3.3 WSW 11 15 6 8 1019.9 1019.8 0.0
25/10:30pm 13.6 10.7 4.7 55 4.1 SE 9 11 5 6 1019.6 1019.5 0.0
25/10:00pm 13.6 9.9 4.2 53 4.3 SE 13 17 7 9 1019.3 1019.2 0.0
25/09:30pm 14.2 12.4 1.2 41 5.6 CALM 0 0 0 0 1019.2 1019.1 0.0
25/09:00pm 14.6 12.0 3.4 47 5.1 E 6 7 3 4 1019.0 1018.9 0.0
25/08:30pm 14.6 12.1 4.9 52 4.6 E 7 9 4 5 1018.7 1018.6 0.0
25/08:00pm 14.4 11.6 5.2 54 4.3 E 9 11 5 6 1018.5 1018.4 0.0
25/07:30pm 14.8 12.0 5.1 52 4.6 E 9 11 5 6 1018.2 1018.1 0.0
25/07:00pm 15.9 13.3 4.3 46 5.4 E 7 9 4 5 1017.7 1017.6 0.0
25/06:30pm 16.7 13.5 3.1 40 6.3 E 9 11 5 6 1017.3 1017.2 0.0
25/06:00pm 17.6 14.1 1.2 33 7.3 E 9 13 5 7 1017.0 1016.9 0.0
25/05:30pm 18.2 14.3 1.3 32 7.6 E 11 15 6 8 1016.7 1016.6 0.0
25/05:00pm 18.0 13.3 1.1 32 7.5 E 15 19 8 10 1016.5 1016.4 0.0
25/04:30pm 18.6 13.2 1.2 31 7.8 E 19 24 10 13 1016.2 1016.1 0.0
25/04:00pm 19.0 13.6 1.5 31 7.9 ESE 19 22 10 12 1016.0 1015.9 0.0
25/03:30pm 19.3 14.8 -0.1 27 8.5 S 13 20 7 11 1016.0 1015.9 0.0
25/03:00pm 19.1 15.7 -0.8 26 8.6 SSW 7 13 4 7 1016.1 1016.0 0.0
25/02:30pm 18.8 15.6 0.9 30 8.0 E 7 11 4 6 1016.3 1016.2 0.0
25/02:00pm 19.1 15.5 0.7 29 8.2 SSE 9 19 5 10 1016.7 1016.6 0.0
25/01:30pm 18.5 16.5 2.4 34 7.4 SE 2 11 1 6 1017.2 1017.1 0.0
25/01:00pm 18.0 15.0 1.9 34 7.3 NNW 7 9 4 5 1017.6 1017.5 0.0
25/12:30pm 18.5 15.8 2.8 35 7.3 N 6 11 3 6 1017.9 1017.8 0.0
25/12:00pm 17.3 13.8 3.6 40 6.4 N 11 15 6 8 1018.4 1018.3 0.0
25/11:30am 17.0 14.2 5.0 45 5.8 N 9 13 5 7 1018.8 1018.7 0.0
25/11:00am 15.8 12.9 6.3 53 4.6 NNW 11 17 6 9 1019.2 1019.1 0.0
25/10:30am 14.5 11.8 7.3 62 3.6 W 11 13 6 7 1019.3 1019.2 0.0
25/10:00am 13.7 11.0 7.5 66 3.1 W 11 15 6 8 1019.2 1019.1 0.0
25/09:30am 12.5 9.8 7.4 71 2.5 W 11 15 6 8 1019.0 1018.9 0.0
25/09:00am 12.0 9.7 7.5 74 2.2 W 9 11 5 6 1019.0 1018.9 1.0
25/08:30am 10.6 7.8 7.1 79 1.7 W 11 13 6 7 1018.5 1018.4 1.0
25/08:00am 9.8 6.9 6.5 80 1.5 W 11 13 6 7 1018.2 1018.1 1.0
25/07:30am 8.6 5.6 6.1 84 1.2 W 11 13 6 7 1017.9 1017.8 1.0
25/07:00am 8.2 4.7 5.3 82 1.3 WSW 13 15 7 8 1017.5 1017.4 1.0
25/06:30am 8.2 4.9 4.8 79 1.5 WSW 11 13 6 7 1017.2 1017.1 1.0
25/06:00am 8.2 5.3 4.8 79 1.5 S 9 13 5 7 1016.8 1016.7 1.0
25/05:30am 8.0 5.0 4.2 77 1.7 S 9 11 5 6 1016.3 1016.2 1.0
25/05:00am 9.4 6.6 5.0 74 2.0 SSE 9 11 5 6 1016.1 1016.0 1.0
25/04:30am 9.2 6.4 5.0 75 1.9 SSE 9 9 5 5 1015.9 1015.8 1.0
25/04:00am 9.7 7.9 5.3 74 2.0 SSE 4 9 2 5 1015.9 1015.8 1.0
25/03:30am 9.4 8.2 4.4 71 2.2 CALM 0 0 0 0 1015.7 1015.6 1.0
25/03:00am 9.0 7.7 4.2 72 2.1 CALM 0 0 0 0 1015.8 1015.7 1.0
25/02:30am 8.8 7.6 4.6 75 1.9 CALM 0 0 0 0 1016.0 1015.9 1.0
25/02:00am 9.5 8.5 5.7 77 1.7 CALM 0 0 0 0 1016.0 1015.9 1.0
25/01:30am 8.5 6.7 5.3 80 1.4 SSE 4 7 2 4 1016.0 1015.9 1.0
25/01:00am 8.9 6.4 4.7 75 1.9 SSE 7 7 4 4 1015.9 1015.8 1.0
25/12:30am 8.9 6.4 4.5 74 2.0 SSE 7 9 4 5 1016.0 1015.9 1.0
25/12:00am 9.2 6.4 5.2 76 1.8 SSE 9 11 5 6 1016.1 1016.0 1.0
 
Date/Time
EST
Temp
°C
App
Temp
°C
Dew
Point
°C
Rel
Hum
%
Delta-T
°C
Wind Press
QNH
hPa
Press
MSL
hPa
Rain since
9am
mm
Dir  Spd
km/h
Gust
km/h
Spd
kts
Gust
kts
24/11:30pm 8.7 5.5 5.3 79 1.5 SSE 11 15 6 8 1016.2 1016.1 1.0
24/11:00pm 9.6 5.7 5.2 74 2.0 SSW 15 17 8 9 1015.9 1015.8 1.0
24/10:30pm 9.5 5.3 5.5 76 1.8 SW 17 17 9 9 1015.9 1015.8 1.0
24/10:00pm 9.1 5.3 5.7 79 1.6 SW 15 17 8 9 1016.0 1015.9 1.0
24/09:30pm 10.4 6.3 6.0 74 2.0 SW 17 19 9 10 1015.7 1015.6 1.0
24/09:00pm 10.8 6.7 6.2 73 2.2 SW 17 19 9 10 1015.6 1015.5 1.0
24/08:30pm 11.3 6.9 6.4 72 2.3 SW 19 19 10 10 1015.3 1015.1 1.0
24/08:00pm 11.5 7.5 6.6 72 2.3 SW 17 19 9 10 1015.3 1015.1 1.0
24/07:30pm 12.5 8.5 6.5 67 2.9 SW 17 19 9 10 1015.1 1014.9 1.0
24/07:00pm 13.0 9.5 7.0 67 2.9 SSW 15 17 8 9 1014.7 1014.5 1.0
24/06:30pm 14.5 10.4 6.3 58 4.0 S 17 20 9 11 1014.2 1014.0 1.0
24/06:00pm 16.0 11.1 5.0 48 5.2 SSW 20 28 11 15 1013.9 1013.7 1.0
24/05:30pm 16.7 10.6 5.0 46 5.6 SW 26 32 14 17 1013.6 1013.4 1.0
24/05:00pm 16.9 11.1 4.6 44 5.8 SW 24 32 13 17 1013.5 1013.3 1.0
24/04:30pm 16.9 11.3 5.2 46 5.6 SSW 24 32 13 17 1013.2 1013.0 1.0
24/04:00pm 17.2 11.2 5.2 45 5.8 SW 26 33 14 18 1012.9 1012.7 1.0
24/03:30pm 16.7 10.7 5.3 47 5.5 SSW 26 32 14 17 1012.6 1012.4 1.0
24/03:00pm 17.5 12.4 7.5 52 5.1 SSW 24 33 13 18 1012.3 1012.1 1.0
24/02:30pm 17.1 11.4 6.6 50 5.2 SW 26 33 14 18 1012.3 1012.1 1.0
24/02:00pm 16.9 11.5 8.1 56 4.5 SSW 26 33 14 18 1012.5 1012.3 1.0
24/01:30pm 15.8 10.4 8.1 60 3.9 SSW 26 39 14 21 1012.9 1012.7 1.0
24/01:00pm 16.4 12.3 10.0 66 3.4 SW 22 30 12 16 1013.3 1013.1 1.0
24/12:30pm 15.7 12.0 10.2 70 2.9 SSW 20 28 11 15 1013.7 1013.5 1.0
24/12:00pm 14.6 9.9 10.8 78 2.0 SSW 26 33 14 18 1013.9 1013.7 1.0
24/11:41am 13.7 8.7 9.6 76 2.1 SSW 26 32 14 17 1013.9 1013.7 1.0
24/11:30am 13.3 8.5 10.3 82 1.6 SSW 26 32 14 17 1014.0 1013.8 1.0
24/11:00am 12.4 9.0 11.1 92 0.7 SSW 20 26 11 14 1014.2 1014.0 1.0
24/10:30am 11.7 7.4 10.6 93 0.6 SSW 24 30 13 16 1014.4 1014.2 1.0
24/10:00am 11.8 8.5 11.0 95 0.4 SSW 19 22 10 12 1014.1 1013.9 1.0
24/09:36am 11.5 9.4 11.0 97 0.3 SSW 13 17 7 9 1014.1 1013.9 1.0
24/09:30am 11.5 9.4 11.0 97 0.3 SSW 13 17 7 9 1014.0 1013.8 1.0
24/09:00am 11.4 9.2 10.9 97 0.3 S 13 17 7 9 1013.6 1013.4 3.0
24/08:47am 11.2 8.6 10.7 97 0.3 SSE 15 17 8 9 1013.4 1013.2 3.0
24/08:30am 11.0 8.0 10.7 98 0.2 S 17 20 9 11 1013.1 1012.9 3.0
24/08:29am 11.0 8.0 10.7 98 0.2 S 17 20 9 11 1013.2 1013.0 3.0
24/08:17am 11.0 8.3 10.5 97 0.3 S 15 20 8 11 1013.1 1012.9 2.8
24/08:00am 11.0 8.0 10.5 97 0.3 S 17 24 9 13 1013.0 1012.8 2.8
24/07:30am 10.8 7.1 10.3 97 0.3 SW 20 28 11 15 1012.7 1012.5 2.6
24/07:00am 11.1 8.0 10.2 94 0.5 SSW 17 20 9 11 1012.1 1011.9 2.2
24/06:47am 11.1 8.0 10.3 95 0.4 SSW 17 22 9 12 1011.8 1011.6 2.2
24/06:30am 11.1 8.4 10.5 96 0.3 SSW 15 19 8 10 1011.5 1011.4 2.2
24/06:00am 11.0 8.7 10.5 97 0.3 S 13 19 7 10 1010.9 1010.8 2.2
24/05:30am 10.8 8.9 10.5 98 0.2 ESE 11 13 6 7 1010.8 1010.7 2.2
24/05:00am 10.7 9.7 10.2 97 0.3 E 6 7 3 4 1010.4 1010.3 2.0
24/04:30am 11.1 11.3 10.5 96 0.3 CALM 0 6 0 3 1010.2 1010.1 2.0
24/04:00am 11.1 10.2 10.6 97 0.3 E 6 9 3 5 1010.0 1009.9 2.0
24/03:30am 10.9 9.9 10.3 96 0.3 E 6 7 3 4 1010.1 1010.0 2.0
24/03:00am 10.9 9.3 10.3 96 0.3 E 9 13 5 7 1010.4 1010.3 2.0
24/02:30am 11.2 8.5 10.3 94 0.5 E 15 17 8 9 1010.4 1010.3 2.0
24/02:00am 11.4 7.9 10.1 92 0.7 E 19 24 10 13 1010.8 1010.7 2.0
24/01:30am 11.6 8.1 10.2 91 0.7 ESE 19 24 10 13 1011.4 1011.3 2.0
24/01:00am 11.6 8.1 10.3 92 0.7 SE 19 24 10 13 1011.7 1011.5 2.0
24/12:30am 11.7 8.3 10.4 92 0.7 SE 19 22 10 12 1011.8 1011.6 2.0
24/12:00am 11.7 8.3 10.6 93 0.6 SSE 19 22 10 12 1011.9 1011.7 2.0
 
Date/Time
EST
Temp
°C
App
Temp
°C
Dew
Point
°C
Rel
Hum
%
Delta-T
°C
Wind Press
QNH
hPa
Press
MSL
hPa
Rain since
9am
mm
Dir  Spd
km/h
Gust
km/h
Spd
kts
Gust
kts
23/11:30pm 11.8 8.4 10.7 93 0.6 SE 19 22 10 12 1012.2 1012.0 2.0
23/11:00pm 11.8 7.9 10.7 93 0.6 SE 22 28 12 15 1011.7 1011.5 2.0
23/10:30pm 12.1 8.6 11.0 93 0.6 SE 20 28 11 15 1012.1 1011.9 2.0
23/10:25pm 12.1 8.3 11.0 93 0.6 SE 22 28 12 15 1012.0 1011.8 2.0

Other Formats:

Comma delimited format used in spreadsheet applications
http://www.bom.gov.au/fwo/IDQ60801/IDQ60801.95487.axf

JavaScript Object Notation format (JSON) in row-major order
http://www.bom.gov.au/fwo/IDQ60801/IDQ60801.95487.json